Time;durP1;ratioP1;P1;durP2;ratioP2;P2;SDS_P1;SDS_P2;PMS_P1;PMS_P2;Temp;Humidity;BMP_temperature;BMP_pressure;BME280_temperature;BME280_humidity;BME280_pressure;Samples;Min_cycle;Max_cycle;Signal;HPM_P1;HPM_P2
2022/10/20 00:01:51;;;;;;;;;14.67;11.67;;;;;18.23;78.42;100785.88;4977446;28;45590;-73
2022/10/20 00:04:16;;;;;;;;;18.00;13.00;;;;;18.25;78.02;100781.16;4965617;28;45387;-71
2022/10/20 00:06:42;;;;;;;;;15.00;13.33;;;;;17.92;77.90;100733.22;4958591;28;45389;-70
2022/10/20 00:09:07;;;;;;;;;14.00;11.00;;;;;18.30;77.96;100777.88;4940764;28;45403;-72
2022/10/20 00:11:33;;;;;;;;;14.67;13.00;;;;;18.26;77.93;100781.97;4957817;28;47040;-71
2022/10/20 00:14:00;;;;;;;;;16.67;16.00;;;;;18.35;77.81;100792.41;4940186;28;45506;-71
2022/10/20 00:16:27;;;;;;;;;11.00;10.00;;;;;17.47;77.76;100642.97;4957207;28;45330;-72
2022/10/20 00:18:53;;;;;;;;;12.33;12.33;;;;;18.37;77.72;100779.56;4957958;28;45248;-71
2022/10/20 00:21:22;;;;;;;;;14.33;12.33;;;;;15.90;77.51;100383.25;4957629;28;46663;-72
2022/10/20 00:23:48;;;;;;;;;15.33;12.33;;;;;18.20;77.63;100760.16;4957687;28;45442;-72
2022/10/20 00:26:17;;;;;;;;;17.00;14.67;;;;;18.27;77.85;100779.09;4960814;28;45533;-72
2022/10/20 00:28:43;;;;;;;;;16.33;12.33;;;;;17.91;77.85;100718.09;4961170;28;46063;-70
2022/10/20 00:31:09;;;;;;;;;10.33;10.33;;;;;17.99;78.10;100729.75;4959470;28;47356;-70
2022/10/20 00:33:35;;;;;;;;;11.33;10.33;;;;;18.10;77.95;100745.38;4961149;28;45390;-71
2022/10/20 00:36:02;;;;;;;;;13.67;13.67;;;;;18.01;78.12;100725.84;4943661;28;45998;-72
2022/10/20 00:38:28;;;;;;;;;13.33;11.00;;;;;18.27;77.79;100765.63;4961208;28;45280;-71
2022/10/20 00:40:54;;;;;;;;;13.67;12.33;;;;;18.14;77.70;100741.28;4959505;28;47371;-71
2022/10/20 00:43:20;;;;;;;;;8.33;8.00;;;;;18.22;77.63;100762.69;4973825;28;45648;-70
2022/10/20 00:45:51;;;;;;;;;13.67;12.33;;;;;17.92;77.53;100703.63;4980380;28;45455;-71
2022/10/20 00:48:24;;;;;;;;;11.33;10.33;;;;;18.17;77.57;100751.66;4980442;28;45375;-69
2022/10/20 00:50:52;;;;;;;;;14.67;12.33;;;;;18.18;77.63;100743.38;4980207;28;45779;-70
2022/10/20 00:53:21;;;;;;;;;13.00;13.00;;;;;18.26;77.67;100758.59;4978857;28;45490;-71
2022/10/20 00:55:49;;;;;;;;;13.33;11.67;;;;;17.36;77.47;100607.72;4980325;28;45252;-72
2022/10/20 00:58:15;;;;;;;;;13.00;12.00;;;;;18.17;77.44;100754.34;4980555;28;45239;-72
2022/10/20 01:00:42;;;;;;;;;14.00;10.67;;;;;17.45;77.67;100628.06;4980216;28;46104;-70
2022/10/20 01:03:14;;;;;;;;;12.00;11.33;;;;;17.86;77.87;100696.34;4960715;28;46380;-72
2022/10/20 01:05:39;;;;;;;;;12.67;12.67;;;;;18.01;77.59;100711.56;4979099;28;45355;-70
2022/10/20 01:08:04;;;;;;;;;11.33;10.67;;;;;18.02;77.85;100707.84;4964319;28;45691;-71
2022/10/20 01:10:39;;;;;;;;;13.33;12.33;;;;;18.12;77.68;100727.19;4959506;28;46574;-72
2022/10/20 01:13:24;;;;;;;;;13.00;13.00;;;;;17.82;77.89;100704.97;4959485;28;46695;-71
2022/10/20 01:16:24;;;;;;;;;15.33;13.67;;;;;18.10;78.26;100748.91;4973577;28;45240;-71
2022/10/20 01:19:18;;;;;;;;;15.67;13.33;;;;;17.83;77.97;100729.00;4913653;28;45554;-70
2022/10/20 01:22:02;;;;;;;;;12.00;11.00;;;;;18.07;78.00;100762.75;4979531;28;48295;-72
2022/10/20 01:24:59;;;;;;;;;14.33;12.67;;;;;18.04;78.42;100770.38;4980125;28;45372;-71
2022/10/20 01:27:32;;;;;;;;;11.33;11.33;;;;;18.00;78.62;100759.16;4980445;28;45433;-72
2022/10/20 01:30:08;;;;;;;;;20.33;13.00;;;;;17.97;78.54;100767.59;4979854;28;45577;-71
2022/10/20 01:32:33;;;;;;;;;13.33;12.67;;;;;17.95;78.48;100772.34;4962003;28;48553;-71
2022/10/20 01:35:11;;;;;;;;;12.00;9.67;;;;;17.71;78.77;100741.28;4980417;28;45492;-71
2022/10/20 01:37:58;;;;;;;;;13.67;12.00;;;;;17.85;78.45;100753.84;4978316;28;45250;-72
2022/10/20 01:40:43;;;;;;;;;14.33;12.67;;;;;17.79;78.95;100748.38;4978629;28;45327;-73
2022/10/20 01:43:11;;;;;;;;;12.67;12.67;;;;;17.63;79.02;100744.06;4967323;28;45703;-71
2022/10/20 01:45:40;;;;;;;;;13.67;13.00;;;;;17.56;79.75;100764.66;4979189;28;45435;-71
2022/10/20 01:48:09;;;;;;;;;13.67;12.67;;;;;17.06;79.71;100693.78;4979563;28;45311;-71
2022/10/20 01:50:37;;;;;;;;;13.33;12.33;;;;;17.49;80.01;100769.94;4979547;28;45384;-70
2022/10/20 01:53:03;;;;;;;;;13.00;11.67;;;;;17.65;80.24;100776.97;4979047;28;46289;-70
2022/10/20 01:55:29;;;;;;;;;16.33;12.67;;;;;17.55;79.74;100773.72;4979140;28;45449;-71
2022/10/20 01:58:20;;;;;;;;;13.67;13.67;;;;;16.99;79.92;100698.22;4979315;28;45596;-72
2022/10/20 02:00:47;;;;;;;;;12.00;10.33;;;;;17.34;79.87;100743.09;4981067;28;45200;-70
2022/10/20 02:03:49;;;;;;;;;13.50;13.50;;;;;17.76;79.70;100797.16;4982957;28;46868;-70
2022/10/20 02:06:31;;;;;;;;;11.67;10.67;;;;;17.74;79.94;100757.03;4978914;28;45236;-70
2022/10/20 02:09:11;;;;;;;;;13.00;10.33;;;;;17.76;80.20;100764.91;4961537;28;45522;-69
2022/10/20 02:12:05;;;;;;;;;15.33;12.33;;;;;17.78;80.15;100739.47;4976091;28;45386;-70
2022/10/20 02:14:32;;;;;;;;;10.00;9.33;;;;;17.74;80.26;100729.31;4975790;28;45832;-71
2022/10/20 02:17:03;;;;;;;;;12.67;12.67;;;;;17.72;80.68;100726.81;4978717;28;45525;-70
2022/10/20 02:19:33;;;;;;;;;16.67;11.33;;;;;17.84;80.54;100700.25;4978603;28;45296;-70
2022/10/20 02:22:00;;;;;;;;;12.00;10.33;;;;;17.94;80.38;100685.44;4979307;28;45538;-70
2022/10/20 02:24:30;;;;;;;;;13.00;13.00;;;;;17.96;80.30;100685.25;4961181;28;46856;-73
2022/10/20 02:27:00;;;;;;;;;12.00;9.67;;;;;17.48;80.35;100616.94;4978783;28;45607;-69
2022/10/20 02:29:29;;;;;;;;;10.67;9.67;;;;;17.86;80.56;100680.22;4978786;28;45521;-72
2022/10/20 02:31:55;;;;;;;;;9.67;8.67;;;;;18.02;80.34;100662.09;4978779;28;45165;-70
2022/10/20 02:34:24;;;;;;;;;11.33;7.33;;;;;17.80;80.50;100626.34;4978669;28;45598;-71
2022/10/20 02:36:56;;;;;;;;;10.00;7.00;;;;;17.85;80.23;100581.72;4978554;28;45426;-70
2022/10/20 02:39:21;;;;;;;;;7.00;6.00;;;;;17.89;80.02;100566.03;4976439;28;45483;-70
2022/10/20 02:41:46;;;;;;;;;7.67;6.67;;;;;18.17;79.53;100600.97;4960624;28;51645;-71
2022/10/20 02:44:11;;;;;;;;;8.33;6.33;;;;;18.19;78.96;100598.91;4978400;28;52225;-70
2022/10/20 02:46:37;;;;;;;;;8.33;6.00;;;;;18.30;78.99;100605.63;4977768;28;56018;-69
2022/10/20 02:49:02;;;;;;;;;6.00;5.00;;;;;18.39;78.74;100613.31;4977767;28;45248;-73
2022/10/20 02:51:28;;;;;;;;;7.00;6.00;;;;;18.35;78.11;100601.28;4979103;28;45414;-71
2022/10/20 02:53:53;;;;;;;;;5.33;5.33;;;;;18.39;77.37;100594.47;4978313;28;45920;-71
2022/10/20 02:56:19;;;;;;;;;6.67;5.67;;;;;17.85;76.48;100509.13;4976880;28;45318;-71
2022/10/20 02:58:44;;;;;;;;;8.00;5.00;;;;;18.54;76.84;100643.66;4978458;28;45358;-71
2022/10/20 03:01:10;;;;;;;;;6.67;6.67;;;;;18.55;75.54;100648.00;4977357;28;45601;-72
2022/10/20 03:03:35;;;;;;;;;7.67;6.00;;;;;18.57;75.33;100645.09;4978541;28;45358;-72
2022/10/20 03:06:12;;;;;;;;;7.00;5.00;;;;;18.47;75.61;100633.88;4976391;28;45374;-73
2022/10/20 03:08:38;;;;;;;;;6.00;5.00;;;;;18.59;75.28;100653.00;4978568;28;45329;-72
2022/10/20 03:11:03;;;;;;;;;3.67;2.33;;;;;18.48;75.52;100639.06;4978436;28;45315;-70
2022/10/20 03:13:29;;;;;;;;;5.00;2.67;;;;;18.47;75.27;100626.63;4977958;28;45733;-71
2022/10/20 03:15:54;;;;;;;;;5.67;5.67;;;;;18.66;75.57;100664.69;4978221;28;45496;-70
2022/10/20 03:18:19;;;;;;;;;6.33;6.33;;;;;18.70;75.45;100660.56;4978142;28;45461;-70
2022/10/20 03:20:45;;;;;;;;;4.00;4.00;;;;;18.52;76.25;100637.63;4978138;28;45547;-72
2022/10/20 03:23:10;;;;;;;;;6.67;4.33;;;;;18.46;75.70;100619.59;4978004;28;46569;-72
2022/10/20 03:25:35;;;;;;;;;8.00;5.67;;;;;18.77;75.07;100645.25;4977732;28;45324;-72
2022/10/20 03:28:01;;;;;;;;;7.00;4.00;;;;;18.65;74.66;100636.09;4977652;28;45865;-70
2022/10/20 03:30:27;;;;;;;;;6.33;6.00;;;;;18.56;75.04;100635.38;4978269;28;45388;-72
2022/10/20 03:32:52;;;;;;;;;4.33;4.00;;;;;18.83;75.37;100676.78;4976313;28;48335;-73
2022/10/20 03:35:18;;;;;;;;;5.00;5.00;;;;;18.83;75.22;100682.19;4962134;28;45562;-72
2022/10/20 03:37:43;;;;;;;;;8.33;6.67;;;;;18.73;75.65;100649.38;4958325;28;45442;-73
2022/10/20 03:40:09;;;;;;;;;6.00;6.00;;;;;18.48;75.62;100620.22;4958387;28;45398;-71
2022/10/20 03:42:34;;;;;;;;;7.00;5.33;;;;;18.78;75.52;100661.22;4958095;28;46567;-70
2022/10/20 03:45:00;;;;;;;;;6.00;5.33;;;;;18.85;75.93;100685.50;4958075;28;45759;-71
2022/10/20 03:47:25;;;;;;;;;8.33;7.00;;;;;18.83;76.17;100684.88;4958303;28;45310;-72
2022/10/20 03:49:51;;;;;;;;;4.67;4.33;;;;;18.83;76.18;100699.16;4959149;28;45283;-70
2022/10/20 03:52:16;;;;;;;;;5.00;5.00;;;;;18.83;76.73;100709.13;4958082;28;46204;-69
2022/10/20 03:54:41;;;;;;;;;6.00;6.00;;;;;18.83;77.23;100703.72;4957923;28;45964;-71
2022/10/20 03:57:07;;;;;;;;;4.33;4.33;;;;;18.66;77.08;100668.19;4958065;28;45536;-70
2022/10/20 03:59:32;;;;;;;;;4.33;4.33;;;;;18.51;76.95;100652.13;4960492;28;45386;-70
2022/10/20 04:01:58;;;;;;;;;5.00;4.50;;;;;18.79;77.64;100724.81;4977506;28;45791;-70
2022/10/20 04:04:23;;;;;;;;;7.00;5.67;;;;;18.80;77.68;100725.66;4977080;28;45225;-70
2022/10/20 04:06:49;;;;;;;;;7.67;5.33;;;;;18.66;78.54;100687.06;4977582;28;45614;-72
2022/10/20 04:09:14;;;;;;;;;6.33;5.33;;;;;18.74;78.65;100686.06;4977878;28;45475;-70
2022/10/20 04:11:39;;;;;;;;;8.00;5.33;;;;;18.45;78.39;100641.34;4977249;28;46891;-70
2022/10/20 04:14:05;;;;;;;;;10.00;6.00;;;;;18.78;78.99;100663.06;4977248;28;45352;-71
2022/10/20 04:16:30;;;;;;;;;6.00;6.00;;;;;18.66;78.99;100652.06;4977353;28;45246;-72
2022/10/20 04:18:55;;;;;;;;;4.67;4.67;;;;;18.75;78.98;100674.25;4977418;28;45379;-70
2022/10/20 04:21:21;;;;;;;;;8.00;5.00;;;;;18.68;79.25;100657.22;4976950;28;45237;-71
2022/10/20 04:23:46;;;;;;;;;4.00;4.00;;;;;18.63;79.08;100673.16;4975569;28;45410;-70
2022/10/20 04:26:14;;;;;;;;;8.33;6.67;;;;;17.67;79.50;100530.25;4977421;28;45317;-70
2022/10/20 04:28:40;;;;;;;;;6.67;6.67;;;;;18.50;79.91;100637.00;4944276;28;45574;-71
2022/10/20 04:31:06;;;;;;;;;9.67;7.00;;;;;18.60;80.18;100639.31;4957675;28;46524;-71
2022/10/20 04:33:32;;;;;;;;;5.00;4.33;;;;;18.61;80.29;100646.38;4959330;28;45290;-71
2022/10/20 04:36:03;;;;;;;;;8.67;6.67;;;;;18.61;79.73;100661.69;4975574;28;45406;-70
2022/10/20 04:38:29;;;;;;;;;9.00;7.33;;;;;18.44;80.13;100653.13;4977878;28;45453;-71
2022/10/20 04:40:57;;;;;;;;;7.33;7.33;;;;;18.52;81.05;100691.47;4976923;28;45426;-70
2022/10/20 04:43:22;;;;;;;;;9.33;9.00;;;;;17.99;81.32;100592.56;4976884;28;45324;-72
2022/10/20 04:45:48;;;;;;;;;7.33;7.00;;;;;18.20;80.96;100612.16;4975469;28;49276;-72
2022/10/20 04:48:13;;;;;;;;;9.67;6.00;;;;;18.60;81.00;100686.97;4977023;28;45277;-70
2022/10/20 04:50:38;;;;;;;;;6.00;6.00;;;;;18.42;81.65;100677.56;4976639;28;45366;-71
2022/10/20 04:53:04;;;;;;;;;5.33;4.67;;;;;18.54;81.19;100677.81;4976494;28;45306;-71
2022/10/20 04:55:29;;;;;;;;;6.67;6.00;;;;;18.53;81.48;100682.38;4975081;28;45476;-71
2022/10/20 04:57:55;;;;;;;;;12.00;8.67;;;;;18.50;81.75;100660.41;4975926;28;45521;-70
2022/10/20 05:00:20;;;;;;;;;8.67;6.00;;;;;18.54;81.69;100661.66;4976543;28;45389;-70
2022/10/20 05:02:45;;;;;;;;;6.67;6.67;;;;;18.36;81.17;100627.19;4976867;28;45230;-72
2022/10/20 05:05:11;;;;;;;;;7.67;7.00;;;;;18.15;81.14;100605.72;4976865;28;45342;-70
2022/10/20 05:07:36;;;;;;;;;9.33;8.33;;;;;18.45;81.35;100669.09;4976512;28;45447;-71
2022/10/20 05:10:02;;;;;;;;;6.00;6.00;;;;;18.22;81.69;100636.22;4958945;28;47196;-69
2022/10/20 05:12:27;;;;;;;;;12.00;7.00;;;;;17.72;81.81;100564.66;4974199;28;45408;-72
2022/10/20 05:14:53;;;;;;;;;11.33;8.33;;;;;18.47;82.09;100687.72;4942971;28;45236;-70
2022/10/20 05:17:18;;;;;;;;;6.33;6.33;;;;;18.48;81.88;100703.69;4960549;28;45604;-71
2022/10/20 05:19:44;;;;;;;;;8.00;7.00;;;;;17.89;82.23;100607.19;4960752;28;45553;-71
2022/10/20 05:22:10;;;;;;;;;13.33;10.33;;;;;18.12;82.11;100633.03;4958915;28;45489;-70
2022/10/20 05:24:35;;;;;;;;;11.00;7.00;;;;;18.06;82.23;100647.28;4942901;28;45363;-73
2022/10/20 05:27:00;;;;;;;;;8.33;8.33;;;;;18.31;82.65;100715.75;4960134;28;45304;-75
2022/10/20 05:29:26;;;;;;;;;8.33;7.67;;;;;17.83;82.90;100645.63;4964465;28;47400;-70
2022/10/20 05:31:51;;;;;;;;;10.00;9.33;;;;;18.19;82.85;100693.91;4965272;28;45478;-72
2022/10/20 05:34:16;;;;;;;;;7.33;7.33;;;;;18.26;82.39;100712.00;4960156;28;45321;-70
2022/10/20 05:36:42;;;;;;;;;8.00;8.00;;;;;18.20;82.39;100708.22;4960599;28;45331;-74
2022/10/20 05:39:09;;;;;;;;;9.67;6.33;;;;;18.22;82.66;100723.16;4961169;28;47940;-73
2022/10/20 05:41:35;;;;;;;;;7.67;7.67;;;;;18.20;82.34;100713.59;4961846;28;45291;-73
2022/10/20 05:44:03;;;;;;;;;11.00;7.00;;;;;18.09;82.54;100689.91;4959380;28;45563;-72
2022/10/20 05:46:34;;;;;;;;;11.67;6.00;;;;;18.17;82.47;100700.53;4959187;28;45430;-73
2022/10/20 05:49:01;;;;;;;;;7.00;5.00;;;;;18.19;82.19;100698.47;4960571;28;47896;-74
2022/10/20 05:51:29;;;;;;;;;6.67;6.67;;;;;18.13;81.67;100681.25;4968902;28;45432;-71
2022/10/20 05:53:56;;;;;;;;;6.67;4.67;;;;;18.11;81.41;100687.84;4960168;28;45463;-73
2022/10/20 05:56:23;;;;;;;;;5.33;5.33;;;;;18.09;81.21;100695.31;4960174;28;45472;-71
2022/10/20 05:58:48;;;;;;;;;5.67;5.67;;;;;18.10;81.36;100688.88;4958570;28;48766;-72
2022/10/20 06:01:23;;;;;;;;;7.00;7.00;;;;;18.11;81.18;100690.56;4959133;28;45403;-71
2022/10/20 06:03:59;;;;;;;;;5.00;5.00;;;;;17.40;81.11;100563.28;4960271;28;45240;-72
2022/10/20 06:06:27;;;;;;;;;4.00;4.00;;;;;18.11;81.19;100663.66;4960823;28;45218;-70
2022/10/20 06:08:54;;;;;;;;;5.33;5.33;;;;;18.11;80.67;100669.84;4960267;28;45597;-73
2022/10/20 06:11:20;;;;;;;;;4.67;4.67;;;;;18.09;80.80;100642.31;4960054;28;45486;-78
2022/10/20 06:13:46;;;;;;;;;9.00;5.33;;;;;17.33;80.55;100494.22;4960194;28;45350;-74
2022/10/20 06:16:16;;;;;;;;;5.00;4.00;;;;;18.07;80.16;100606.72;4956610;28;45641;-75
2022/10/20 06:18:42;;;;;;;;;7.33;5.33;;;;;18.03;79.92;100589.31;4979162;28;46322;-77
2022/10/20 06:21:16;;;;;;;;;6.00;4.00;;;;;18.04;79.86;100601.72;4974257;28;47292;-75
2022/10/20 06:23:42;;;;;;;;;7.67;6.00;;;;;18.01;79.90;100587.81;4959252;28;45311;-73
2022/10/20 06:26:11;;;;;;;;;6.00;4.67;;;;;17.24;79.65;100460.47;4960424;28;45522;-72
2022/10/20 06:28:38;;;;;;;;;4.67;4.00;;;;;17.92;80.14;100568.31;4942051;28;46095;-73
2022/10/20 06:31:18;;;;;;;;;9.33;5.33;;;;;17.14;80.53;100443.81;4958293;28;47141;-72
2022/10/20 06:33:43;;;;;;;;;5.67;4.00;;;;;17.70;81.03;100548.72;4959858;28;45349;-74
2022/10/20 06:36:09;;;;;;;;;8.33;7.00;;;;;17.57;81.59;100530.56;4961031;28;45364;-73
2022/10/20 06:38:35;;;;;;;;;8.67;7.00;;;;;17.76;81.80;100553.31;4961534;28;50644;-72
2022/10/20 06:41:02;;;;;;;;;5.67;5.67;;;;;17.06;81.68;100452.03;4960685;28;45294;-73
2022/10/20 06:43:27;;;;;;;;;8.33;6.00;;;;;17.76;82.05;100558.69;4963896;28;45396;-73
2022/10/20 06:45:57;;;;;;;;;9.33;7.00;;;;;17.74;81.79;100562.59;4960412;28;45397;-73
2022/10/20 06:48:23;;;;;;;;;6.67;6.67;;;;;17.77;81.80;100572.94;4959751;28;45411;-74
2022/10/20 06:50:49;;;;;;;;;8.33;8.33;;;;;17.46;81.53;100532.97;4959013;28;45423;-72
2022/10/20 06:53:14;;;;;;;;;7.67;6.67;;;;;17.42;81.94;100537.06;4957945;28;45435;-73
2022/10/20 06:55:40;;;;;;;;;7.67;5.67;;;;;17.60;82.09;100583.13;4958163;28;45489;-73
2022/10/20 06:58:05;;;;;;;;;5.33;4.33;;;;;17.76;81.57;100604.38;4956901;28;47504;-74
2022/10/20 07:00:30;;;;;;;;;4.67;4.00;;;;;17.73;81.26;100609.34;4956914;28;45447;-75
2022/10/20 07:02:56;;;;;;;;;6.00;6.00;;;;;17.61;81.68;100591.00;4957933;28;45362;-71
2022/10/20 07:05:21;;;;;;;;;4.67;4.33;;;;;17.89;81.23;100652.91;4956040;28;45712;-73
2022/10/20 07:07:47;;;;;;;;;4.33;4.33;;;;;17.84;81.43;100644.59;4941558;28;48581;-72
2022/10/20 07:10:12;;;;;;;;;5.00;5.00;;;;;17.92;81.07;100674.03;4957435;28;64912;-71
2022/10/20 07:12:38;;;;;;;;;3.33;3.33;;;;;17.96;80.79;100668.28;4960804;28;45185;-73
2022/10/20 07:15:05;;;;;;;;;7.67;6.00;;;;;18.01;80.57;100673.91;4959711;28;45327;-73
2022/10/20 07:17:30;;;;;;;;;5.00;4.33;;;;;17.94;80.13;100665.78;4956989;28;48634;-74
2022/10/20 07:19:55;;;;;;;;;6.33;6.33;;;;;18.03;79.74;100664.63;4957507;28;45555;-73
2022/10/20 07:22:21;;;;;;;;;6.00;6.00;;;;;18.08;79.78;100672.13;4953384;28;45462;-72
2022/10/20 07:24:46;;;;;;;;;6.00;5.00;;;;;18.19;79.24;100699.31;4951148;28;45529;-71
2022/10/20 07:27:11;;;;;;;;;12.67;11.67;;;;;18.09;79.03;100673.78;4958355;28;45556;-75
2022/10/20 07:29:37;;;;;;;;;16.33;10.33;;;;;17.89;79.01;100642.16;4957245;28;45479;-72
2022/10/20 07:32:02;;;;;;;;;7.67;4.67;;;;;17.98;79.07;100658.16;4958853;28;45454;-71
2022/10/20 07:34:27;;;;;;;;;5.33;4.33;;;;;17.96;78.72;100646.75;4958002;28;45383;-76
2022/10/20 07:36:54;;;;;;;;;10.33;4.00;;;;;17.99;78.69;100657.94;4959978;28;59177;-71
2022/10/20 07:39:20;;;;;;;;;6.67;5.67;;;;;18.40;78.79;100690.34;4957356;28;45414;-74
2022/10/20 07:41:46;;;;;;;;;6.00;4.33;;;;;18.94;77.73;100692.38;4941361;28;45467;-74
2022/10/20 07:44:12;;;;;;;;;8.67;5.67;;;;;19.62;75.46;100697.81;4957069;28;45475;-72
2022/10/20 07:46:37;;;;;;;;;5.33;4.67;;;;;19.83;72.86;100602.44;4941028;28;46275;-73
2022/10/20 07:49:03;;;;;;;;;4.33;4.33;;;;;20.94;69.00;100620.25;4956904;28;45430;-75
2022/10/20 07:51:29;;;;;;;;;7.33;6.33;;;;;21.58;65.44;100568.91;4957170;28;45437;-74
2022/10/20 07:53:58;;;;;;;;;6.67;5.00;;;;;23.15;61.83;100657.75;4957084;28;45443;-71
2022/10/20 07:56:27;;;;;;;;;5.33;5.33;;;;;23.37;60.17;100585.66;4957199;28;49023;-76
2022/10/20 07:58:53;;;;;;;;;7.33;7.00;;;;;23.82;56.74;100577.03;4957218;28;45477;-72
2022/10/20 08:01:18;;;;;;;;;6.67;6.67;;;;;24.55;56.95;100663.53;4941416;28;45308;-74
2022/10/20 08:03:44;;;;;;;;;5.00;5.00;;;;;24.61;56.40;100678.03;4960033;28;53621;-72
2022/10/20 08:06:09;;;;;;;;;9.25;6.75;;;;;24.50;56.87;100687.88;4960165;28;45273;-73
2022/10/20 08:08:34;;;;;;;;;7.75;6.00;;;;;24.06;56.34;100610.47;4959529;28;45347;-74
2022/10/20 08:11:00;;;;;;;;;6.00;5.00;;;;;24.38;56.56;100684.31;4958792;28;45490;-75
2022/10/20 08:13:27;;;;;;;;;7.25;5.00;;;;;24.44;55.74;100686.13;4958833;28;45467;-74
2022/10/20 08:15:53;;;;;;;;;5.33;4.00;;;;;23.90;55.93;100573.16;4958279;28;45898;-76
2022/10/20 08:18:18;;;;;;;;;3.25;3.25;;;;;24.91;54.66;100661.56;4957566;28;45446;-75
2022/10/20 08:20:44;;;;;;;;;5.00;4.00;;;;;24.57;54.77;100655.94;4958608;28;45603;-74
2022/10/20 08:23:13;;;;;;;;;6.75;4.50;;;;;24.32;55.56;100663.53;4961182;28;45662;-75
2022/10/20 08:25:39;;;;;;;;;7.00;5.00;;;;;23.42;56.66;100587.69;4955817;28;48702;-74
2022/10/20 08:28:05;;;;;;;;;7.33;7.33;;;;;23.12;57.08;100628.41;4956001;28;45353;-77
2022/10/20 08:30:31;;;;;;;;;5.00;5.00;;;;;22.77;58.52;100666.94;4959624;28;45485;-74
2022/10/20 08:32:56;;;;;;;;;5.25;5.25;;;;;22.33;59.51;100681.59;4962455;28;45623;-75
2022/10/20 08:35:23;;;;;;;;;4.25;3.00;;;;;21.94;60.61;100676.47;4942717;28;48200;-74
2022/10/20 08:37:48;;;;;;;;;4.00;3.00;;;;;21.73;61.41;100677.66;4968963;28;45803;-73
2022/10/20 08:40:21;;;;;;;;;5.33;5.33;;;;;21.22;62.76;100652.38;4975335;28;45349;-74
2022/10/20 08:42:47;;;;;;;;;4.33;3.33;;;;;21.08;63.93;100672.38;4977994;28;45536;-73
2022/10/20 08:45:16;;;;;;;;;3.00;2.00;;;;;20.29;64.31;100594.25;4959293;28;46308;-72
2022/10/20 08:47:43;;;;;;;;;4.67;4.00;;;;;20.70;65.41;100680.41;4944169;28;45353;-73
2022/10/20 08:50:12;;;;;;;;;3.00;3.00;;;;;19.92;65.98;100579.56;4959388;28;45292;-74
2022/10/20 08:52:39;;;;;;;;;2.50;2.50;;;;;20.42;66.30;100693.31;4959533;28;45519;-74
2022/10/20 08:55:06;;;;;;;;;1.50;1.50;;;;;19.84;66.98;100609.47;4943123;28;48485;-76
2022/10/20 08:57:34;;;;;;;;;6.67;4.67;;;;;19.97;67.16;100641.84;4959453;28;45600;-73
2022/10/20 09:00:20;;;;;;;;;5.33;4.67;;;;;20.11;67.66;100675.88;4957738;28;45303;-73
2022/10/20 09:02:47;;;;;;;;;6.00;4.75;;;;;20.24;67.84;100691.25;4955333;28;45289;-73
2022/10/20 09:05:15;;;;;;;;;6.25;5.25;;;;;19.94;68.21;100636.84;4961048;28;46557;-72
2022/10/20 09:07:41;;;;;;;;;5.50;4.00;;;;;20.81;67.34;100668.94;4959003;28;45517;-72
2022/10/20 09:10:15;;;;;;;;;6.00;6.00;;;;;22.70;62.01;100703.31;4958539;28;45731;-72
2022/10/20 09:12:42;;;;;;;;;7.00;5.00;;;;;23.61;58.08;100659.03;4960524;28;45514;-73
2022/10/20 09:15:11;;;;;;;;;4.33;4.33;;;;;24.75;55.02;100695.75;4960179;28;47374;-72
2022/10/20 09:17:40;;;;;;;;;6.50;6.50;;;;;24.54;53.60;100593.09;4954988;28;45466;-71
2022/10/20 09:20:16;;;;;;;;;3.00;3.00;;;;;25.06;52.92;100697.28;4958576;28;45608;-74
2022/10/20 09:22:41;;;;;;;;;4.50;4.50;;;;;24.61;53.82;100671.78;4964106;28;45541;-73
2022/10/20 09:25:15;;;;;;;;;6.25;4.25;;;;;24.40;54.77;100689.53;4962179;28;45322;-72
2022/10/20 09:27:41;;;;;;;;;6.00;6.00;;;;;23.40;55.78;100594.41;4959774;28;45490;-75
2022/10/20 09:30:32;;;;;;;;;4.50;4.50;;;;;23.68;56.36;100673.34;4978849;28;45322;-73
2022/10/20 09:32:57;;;;;;;;;3.75;3.00;;;;;23.53;57.67;100679.16;4966392;28;45606;-72
2022/10/20 09:35:29;;;;;;;;;5.25;4.25;;;;;23.41;57.65;100682.88;4960359;28;45508;-74
2022/10/20 09:38:02;;;;;;;;;4.75;2.50;;;;;23.21;58.56;100667.69;4960926;28;45247;-71
2022/10/20 09:40:28;;;;;;;;;2.75;2.75;;;;;22.91;58.41;100661.41;4960477;28;45387;-72
2022/10/20 09:43:02;;;;;;;;;3.00;3.00;;;;;22.50;59.13;100649.34;4961835;28;45279;-73
2022/10/20 09:45:30;;;;;;;;;1.75;1.75;;;;;22.21;59.72;100652.72;4973358;28;45505;-71
2022/10/20 09:48:02;;;;;;;;;4.00;4.00;;;;;22.05;60.05;100668.50;4979861;28;45509;-73
2022/10/20 09:50:35;;;;;;;;;3.00;2.75;;;;;21.23;61.14;100566.66;4959552;28;45242;-72
2022/10/20 09:53:05;;;;;;;;;3.25;3.25;;;;;21.60;62.22;100669.63;4959027;28;45490;-73
2022/10/20 09:55:35;;;;;;;;;6.25;5.50;;;;;21.46;62.18;100658.09;4958916;28;46799;-72
2022/10/20 09:58:03;;;;;;;;;3.75;3.75;;;;;21.30;62.58;100648.59;4959842;28;45508;-71
2022/10/20 10:00:48;;;;;;;;;3.00;2.75;;;;;21.20;63.26;100648.19;4960057;28;45399;-71
2022/10/20 10:03:22;;;;;;;;;2.25;2.25;;;;;21.29;62.58;100668.56;4970288;28;45643;-72
2022/10/20 10:05:59;;;;;;;;;3.75;3.50;;;;;21.11;62.74;100665.72;4963271;28;46625;-74
2022/10/20 10:08:29;;;;;;;;;4.00;3.50;;;;;21.06;63.09;100655.56;4967806;28;45379;-75
2022/10/20 10:11:16;;;;;;;;;2.00;2.00;;;;;20.41;63.61;100562.06;4977951;28;45576;-72
2022/10/20 10:13:44;;;;;;;;;3.50;3.50;;;;;21.01;63.22;100665.31;4977061;28;45421;-72
2022/10/20 10:16:15;;;;;;;;;3.00;3.00;;;;;20.96;63.73;100668.69;4980295;28;45631;-73
2022/10/20 10:18:43;;;;;;;;;1.75;1.00;;;;;20.88;63.39;100666.22;4977231;28;45631;-73
2022/10/20 10:21:12;;;;;;;;;4.75;3.50;;;;;20.64;63.22;100606.47;4979527;28;45246;-73
2022/10/20 10:23:58;;;;;;;;;4.50;3.00;;;;;20.57;63.49;100588.59;4981742;28;45555;-73
2022/10/20 10:26:38;;;;;;;;;5.00;5.00;;;;;21.00;63.37;100640.16;4974176;28;45554;-72
2022/10/20 10:29:04;;;;;;;;;2.50;2.50;;;;;21.24;63.17;100657.59;4958460;28;45439;-73
2022/10/20 10:31:32;;;;;;;;;4.33;4.33;;;;;21.30;62.94;100645.91;4959419;28;45288;-72
2022/10/20 10:34:12;;;;;;;;;2.00;2.00;;;;;21.31;62.94;100654.84;4960277;28;45545;-72
2022/10/20 10:36:37;;;;;;;;;2.00;2.00;;;;;21.11;62.03;100617.06;4940729;28;46638;-72
2022/10/20 10:39:05;;;;;;;;;3.00;3.00;;;;;21.31;61.54;100644.03;4940746;28;45216;-73
2022/10/20 10:41:57;;;;;;;;;7.67;7.33;;;;;21.41;60.97;100644.34;4956668;28;45303;-71
2022/10/20 10:44:35;;;;;;;;;1.75;1.75;;;;;21.40;60.26;100638.13;4959490;28;45563;-72
2022/10/20 10:47:28;;;;;;;;;1.25;1.25;;;;;21.29;60.00;100633.41;4976428;28;45880;-74
2022/10/20 10:50:16;;;;;;;;;1.00;1.00;;;;;21.49;59.79;100646.81;4979608;28;45399;-73
2022/10/20 10:52:58;;;;;;;;;3.50;2.25;;;;;21.56;58.54;100634.91;4979111;28;45194;-72
2022/10/20 10:55:55;;;;;;;;;0.50;0.50;;;;;21.71;58.71;100634.59;4979971;28;45307;-72
2022/10/20 10:58:26;;;;;;;;;3.00;1.00;;;;;21.83;57.83;100621.19;4976912;28;45852;-73
2022/10/20 11:01:29;;;;;;;;;1.00;1.00;;;;;21.88;57.78;100624.06;4978889;28;45488;-73
2022/10/20 11:04:25;;;;;;;;;4.00;2.33;;;;;21.73;57.90;100577.53;4979193;28;45393;-75
2022/10/20 11:07:05;;;;;;;;;3.25;2.00;;;;;21.86;57.81;100623.44;4978784;28;45393;-74
2022/10/20 11:09:45;;;;;;;;;1.50;1.50;;;;;21.86;57.15;100618.03;4960545;28;48160;-76
2022/10/20 11:12:27;;;;;;;;;1.75;1.75;;;;;21.87;57.34;100608.88;4945304;28;45607;-72
2022/10/20 11:15:21;;;;;;;;;4.33;4.00;;;;;21.87;57.61;100603.47;4959642;28;45549;-73
2022/10/20 11:18:13;;;;;;;;;2.00;2.00;;;;;21.91;57.80;100607.38;4955845;28;45518;-74
2022/10/20 11:20:54;;;;;;;;;2.00;1.75;;;;;21.91;56.82;100607.38;4959027;28;46006;-75
2022/10/20 11:23:26;;;;;;;;;2.00;2.00;;;;;21.23;56.56;100490.97;4958395;28;45376;-72
2022/10/20 11:25:56;;;;;;;;;2.75;2.75;;;;;21.83;57.40;100600.38;4961212;28;45556;-76
2022/10/20 11:28:43;;;;;;;;;1.75;1.75;;;;;21.43;57.17;100534.09;4960128;28;45517;-73
2022/10/20 11:31:34;;;;;;;;;2.67;2.33;;;;;21.54;56.90;100566.66;4954031;28;45941;-74
2022/10/20 11:34:13;;;;;;;;;2.00;1.00;;;;;21.70;56.60;100588.81;4959012;28;45463;-73